Time;durP1;ratioP1;P1;durP2;ratioP2;P2;SDS_P1;SDS_P2;PMS_P1;PMS_P2;Temp;Humidity;BMP_temperature;BMP_pressure;BME280_temperature;BME280_humidity;BME280_pressure;Samples;Min_cycle;Max_cycle;Signal;HPM_P1;HPM_P2
2023/07/21 00:00:29;;;;;;;1.10;1.00;;;22.10;54.60;;;;;;5038608;28;20102;-80
2023/07/21 00:02:55;;;;;;;0.80;0.80;;;22.10;54.70;;;;;;5055159;28;20032;-80
2023/07/21 00:05:24;;;;;;;0.75;0.75;;;22.10;54.70;;;;;;5055719;28;20391;-82
2023/07/21 00:07:51;;;;;;;0.75;0.68;;;22.10;54.70;;;;;;5055043;28;20042;-81
2023/07/21 00:10:16;;;;;;;1.25;0.80;;;22.10;54.70;;;;;;5038668;28;20025;-83
2023/07/21 00:12:46;;;;;;;0.80;0.80;;;22.10;54.80;;;;;;5038337;28;20021;-81
2023/07/21 00:15:16;;;;;;;0.75;0.75;;;22.00;54.80;;;;;;5039008;28;20052;-81
2023/07/21 00:17:43;;;;;;;0.80;0.80;;;22.00;54.80;;;;;;5054529;28;20115;-81
2023/07/21 00:20:11;;;;;;;1.20;1.00;;;22.00;54.80;;;;;;5073102;28;20029;-82
2023/07/21 00:22:40;;;;;;;0.82;0.82;;;22.00;54.80;;;;;;5054918;28;20059;-81
2023/07/21 00:25:10;;;;;;;0.80;0.80;;;22.00;54.90;;;;;;5038245;28;20028;-81
2023/07/21 00:27:38;;;;;;;0.88;0.80;;;21.90;54.80;;;;;;5055268;28;20120;-81
2023/07/21 00:30:08;;;;;;;1.02;0.82;;;21.90;54.90;;;;;;5021836;28;20036;-81
2023/07/21 00:32:38;;;;;;;1.33;0.95;;;21.90;54.90;;;;;;5040682;28;20054;-80
2023/07/21 00:35:06;;;;;;;0.82;0.82;;;21.90;54.90;;;;;;5058976;28;20029;-79
2023/07/21 00:37:33;;;;;;;0.75;0.75;;;21.90;55.00;;;;;;5041852;28;20055;-80
2023/07/21 00:39:59;;;;;;;0.80;0.80;;;21.80;54.90;;;;;;5076307;28;20039;-80
2023/07/21 00:42:24;;;;;;;0.80;0.80;;;21.80;54.90;;;;;;5059023;28;20032;-81
2023/07/21 00:44:50;;;;;;;0.77;0.65;;;21.80;54.90;;;;;;5041948;28;20071;-82
2023/07/21 00:47:16;;;;;;;1.00;0.90;;;21.80;55.00;;;;;;5058770;28;20024;-80
2023/07/21 00:49:43;;;;;;;0.80;0.80;;;21.80;55.00;;;;;;5058251;28;20040;-83
2023/07/21 00:52:10;;;;;;;0.68;0.68;;;21.80;55.00;;;;;;5074616;28;20466;-81
2023/07/21 00:54:36;;;;;;;0.95;0.80;;;21.70;55.00;;;;;;5058205;28;20484;-80
2023/07/21 00:57:02;;;;;;;0.82;0.82;;;21.70;55.00;;;;;;5075347;28;20202;-80
2023/07/21 00:59:29;;;;;;;0.85;0.85;;;21.70;55.00;;;;;;5075560;28;20024;-80
2023/07/21 01:01:56;;;;;;;0.70;0.70;;;21.70;55.10;;;;;;5057518;28;20087;-80
2023/07/21 01:04:23;;;;;;;0.80;0.80;;;21.70;55.10;;;;;;5075803;28;20039;-80
2023/07/21 01:06:49;;;;;;;0.82;0.80;;;21.70;55.10;;;;;;5041105;28;20033;-82
2023/07/21 01:09:19;;;;;;;0.80;0.80;;;21.60;55.10;;;;;;5008913;28;20032;-81
2023/07/21 01:11:46;;;;;;;0.70;0.70;;;21.60;55.10;;;;;;5057553;28;20032;-81
2023/07/21 01:14:12;;;;;;;0.80;0.80;;;21.60;55.20;;;;;;5057885;28;20029;-81
2023/07/21 01:16:43;;;;;;;1.10;0.90;;;21.50;55.20;;;;;;5057261;28;20127;-81
2023/07/21 01:19:15;;;;;;;1.23;0.90;;;21.60;55.20;;;;;;5057603;28;20473;-84
2023/07/21 01:22:05;;;;;;;0.80;0.80;;;21.50;55.20;;;;;;5057492;28;20457;-80
2023/07/21 01:25:07;;;;;;;0.73;0.73;;;21.40;55.40;;;;;;5057480;28;20032;-81
2023/07/21 01:27:39;;;;;;;1.10;0.90;;;21.50;55.30;;;;;;4989443;28;20036;-82
2023/07/21 01:30:10;;;;;;;1.23;0.90;;;21.40;55.20;;;;;;5075905;28;20028;-81
2023/07/21 01:32:38;;;;;;;0.95;0.73;;;21.40;55.30;;;;;;5058050;28;20361;-81
2023/07/21 01:35:09;;;;;;;1.38;1.02;;;21.40;55.30;;;;;;5056973;28;20025;-84
2023/07/21 01:37:40;;;;;;;0.93;0.80;;;21.40;55.40;;;;;;5074808;28;20036;-80
2023/07/21 01:40:12;;;;;;;0.98;0.80;;;21.30;55.40;;;;;;5041248;28;20095;-84
2023/07/21 01:42:39;;;;;;;1.17;1.05;;;21.30;55.40;;;;;;5074705;28;20032;-81
2023/07/21 01:45:07;;;;;;;0.95;0.90;;;21.30;55.40;;;;;;5056227;28;20024;-82
2023/07/21 01:47:33;;;;;;;1.02;0.90;;;21.30;55.50;;;;;;5040616;28;20116;-84
2023/07/21 01:50:00;;;;;;;0.93;0.82;;;21.30;55.50;;;;;;5056959;28;20411;-80
2023/07/21 01:52:32;;;;;;;0.95;0.80;;;21.20;55.50;;;;;;5056313;28;20052;-86
2023/07/21 01:55:21;;;;;;;0.93;0.90;;;21.20;55.50;;;;;;5075515;28;20412;-84
2023/07/21 01:58:05;;;;;;;0.60;0.60;;;21.20;55.50;;;;;;5057419;28;20044;-80
2023/07/21 02:00:38;;;;;;;0.77;0.70;;;21.20;55.60;;;;;;5056537;28;20041;-80
2023/07/21 02:03:05;;;;;;;0.80;0.80;;;21.20;55.60;;;;;;5056624;28;20040;-80
2023/07/21 02:05:32;;;;;;;1.10;1.00;;;21.10;55.60;;;;;;5056706;28;20025;-81
2023/07/21 02:07:58;;;;;;;1.15;0.90;;;21.10;55.70;;;;;;5056433;28;20032;-83
2023/07/21 02:10:24;;;;;;;1.00;0.95;;;21.10;55.70;;;;;;5039784;28;20036;-80
2023/07/21 02:13:05;;;;;;;1.02;0.90;;;21.10;55.70;;;;;;5028212;28;20025;-81
2023/07/21 02:15:31;;;;;;;1.00;0.90;;;21.00;55.70;;;;;;5056364;28;20043;-81
2023/07/21 02:17:57;;;;;;;0.73;0.73;;;21.00;55.70;;;;;;5039642;28;20029;-81
2023/07/21 02:20:23;;;;;;;0.95;0.90;;;21.00;55.70;;;;;;5007196;28;20090;-81
2023/07/21 02:22:49;;;;;;;0.82;0.82;;;21.00;55.80;;;;;;5039658;28;20036;-81
2023/07/21 02:25:15;;;;;;;1.00;0.95;;;21.00;55.80;;;;;;5057022;28;20131;-80
2023/07/21 02:27:42;;;;;;;1.20;0.93;;;20.90;55.80;;;;;;5041034;28;20056;-81
2023/07/21 02:30:09;;;;;;;0.85;0.75;;;20.90;55.90;;;;;;5040548;28;20032;-80
2023/07/21 02:32:35;;;;;;;1.30;1.10;;;20.90;55.90;;;;;;5057194;28;20093;-80
2023/07/21 02:35:01;;;;;;;0.80;0.80;;;20.90;56.00;;;;;;5055901;28;20041;-81
2023/07/21 02:37:28;;;;;;;0.80;0.80;;;20.90;56.00;;;;;;5074200;28;20043;-80
2023/07/21 02:39:54;;;;;;;0.95;0.80;;;20.80;56.00;;;;;;5056715;28;20115;-81
2023/07/21 02:42:20;;;;;;;0.82;0.82;;;20.80;56.00;;;;;;5072639;28;20463;-80
2023/07/21 02:44:46;;;;;;;0.80;0.80;;;20.80;56.10;;;;;;5039493;28;20029;-80
2023/07/21 02:47:16;;;;;;;0.70;0.70;;;20.80;56.20;;;;;;5055777;28;20082;-81
2023/07/21 02:49:44;;;;;;;1.13;1.02;;;20.70;56.10;;;;;;5056058;28;20024;-80
2023/07/21 02:52:10;;;;;;;0.90;0.90;;;20.70;56.20;;;;;;5039591;28;20086;-81
2023/07/21 02:54:36;;;;;;;0.98;0.82;;;20.70;56.20;;;;;;5039060;28;20035;-79
2023/07/21 02:57:02;;;;;;;0.73;0.73;;;20.70;56.20;;;;;;5038282;28;20119;-81
2023/07/21 02:59:29;;;;;;;0.80;0.80;;;20.60;56.90;;;;;;5055700;28;20064;-82
2023/07/21 03:01:56;;;;;;;1.00;0.93;;;20.60;56.30;;;;;;5035379;28;20496;-84
2023/07/21 03:04:36;;;;;;;0.98;0.82;;;20.60;56.50;;;;;;5037620;28;20032;-82
2023/07/21 03:07:04;;;;;;;0.80;0.80;;;20.60;56.30;;;;;;5037501;28;20500;-80
2023/07/21 03:09:30;;;;;;;0.85;0.85;;;20.60;56.40;;;;;;5019440;28;20029;-80
2023/07/21 03:11:56;;;;;;;1.20;0.90;;;20.50;56.40;;;;;;5035336;28;20021;-81
2023/07/21 03:14:35;;;;;;;0.80;0.80;;;20.50;56.40;;;;;;5037851;28;20025;-81
2023/07/21 03:17:01;;;;;;;1.42;1.10;;;20.50;56.40;;;;;;5035422;28;20037;-81
2023/07/21 03:19:30;;;;;;;1.00;0.90;;;20.50;56.40;;;;;;5003214;28;20083;-80
2023/07/21 03:22:00;;;;;;;1.15;1.05;;;20.50;56.50;;;;;;5052437;28;20025;-80
2023/07/21 03:24:26;;;;;;;1.00;0.90;;;20.40;56.50;;;;;;5035797;28;20032;-80
2023/07/21 03:26:52;;;;;;;1.45;0.98;;;20.40;56.50;;;;;;5035677;28;20044;-80
2023/07/21 03:29:20;;;;;;;1.10;1.00;;;20.40;56.50;;;;;;5035658;28;20060;-80
2023/07/21 03:31:48;;;;;;;0.93;0.93;;;20.40;56.60;;;;;;5036007;28;20065;-80
2023/07/21 03:34:14;;;;;;;0.85;0.85;;;20.30;56.50;;;;;;5035610;28;20037;-81
2023/07/21 03:36:40;;;;;;;0.82;0.82;;;20.30;56.60;;;;;;5051970;28;20087;-80
2023/07/21 03:39:06;;;;;;;0.93;0.85;;;20.30;56.60;;;;;;5051854;28;20124;-83
2023/07/21 03:41:32;;;;;;;0.82;0.80;;;20.30;56.70;;;;;;5035690;28;20035;-81
2023/07/21 03:43:58;;;;;;;1.10;1.00;;;20.30;56.70;;;;;;5002628;28;20025;-81
2023/07/21 03:46:24;;;;;;;0.80;0.80;;;20.30;56.80;;;;;;5035347;28;20036;-81
2023/07/21 03:49:12;;;;;;;1.00;0.90;;;20.20;56.70;;;;;;5039018;28;20367;-80
2023/07/21 03:51:40;;;;;;;1.13;1.00;;;20.20;56.80;;;;;;5035602;28;20072;-81
2023/07/21 03:54:09;;;;;;;0.90;0.90;;;20.20;56.80;;;;;;5051769;28;20378;-81
2023/07/21 03:56:35;;;;;;;1.08;0.98;;;20.20;56.80;;;;;;5002459;28;20029;-80
2023/07/21 03:59:02;;;;;;;0.93;0.90;;;20.10;56.80;;;;;;5051952;28;20538;-82
2023/07/21 04:01:28;;;;;;;1.65;1.25;;;20.10;56.80;;;;;;5034736;28;20136;-81
2023/07/21 04:03:54;;;;;;;1.33;1.00;;;20.10;56.90;;;;;;5035455;28;20040;-80
2023/07/21 04:06:23;;;;;;;0.88;0.88;;;20.10;56.90;;;;;;5035154;28;20041;-82
2023/07/21 04:08:51;;;;;;;1.27;1.00;;;20.10;57.00;;;;;;5039264;28;20495;-84
2023/07/21 04:11:17;;;;;;;0.80;0.80;;;20.00;57.00;;;;;;5039170;28;20123;-80
2023/07/21 04:13:43;;;;;;;1.27;1.00;;;20.00;57.10;;;;;;5055463;28;20030;-80
2023/07/21 04:16:08;;;;;;;1.00;0.88;;;20.00;57.10;;;;;;5039608;28;20040;-81
2023/07/21 04:18:36;;;;;;;1.23;1.13;;;20.00;57.10;;;;;;5038976;28;20037;-80
2023/07/21 04:21:02;;;;;;;1.13;1.02;;;19.90;57.10;;;;;;5038991;28;20106;-81
2023/07/21 04:23:28;;;;;;;0.90;0.90;;;19.90;57.10;;;;;;5038964;28;20032;-82
2023/07/21 04:25:54;;;;;;;2.05;1.10;;;19.90;57.20;;;;;;5055249;28;20037;-81
2023/07/21 04:28:20;;;;;;;1.00;0.90;;;19.90;57.20;;;;;;5005965;28;20056;-80
2023/07/21 04:30:47;;;;;;;0.93;0.93;;;19.90;57.20;;;;;;5038885;28;20545;-81
2023/07/21 04:33:14;;;;;;;0.90;0.90;;;19.90;57.30;;;;;;5022271;28;20029;-82
2023/07/21 04:35:45;;;;;;;1.27;1.00;;;19.80;57.30;;;;;;5038497;28;20037;-80
2023/07/21 04:38:14;;;;;;;0.90;0.90;;;19.80;57.40;;;;;;5039410;28;20029;-81
2023/07/21 04:40:46;;;;;;;1.40;1.30;;;19.80;57.40;;;;;;5039738;28;20539;-80
2023/07/21 04:43:12;;;;;;;1.02;0.90;;;19.80;57.40;;;;;;5038669;28;20068;-83
2023/07/21 04:45:42;;;;;;;0.93;0.93;;;19.80;57.50;;;;;;5055342;28;20124;-81
2023/07/21 04:48:13;;;;;;;1.17;1.07;;;19.70;57.50;;;;;;5039242;28;20450;-79
2023/07/21 04:50:42;;;;;;;1.20;1.10;;;19.70;57.50;;;;;;5054739;28;20283;-80
2023/07/21 04:53:12;;;;;;;0.90;0.90;;;19.70;57.50;;;;;;5022245;28;20021;-79
2023/07/21 04:55:38;;;;;;;1.10;1.00;;;19.70;57.50;;;;;;5038141;28;20037;-79
2023/07/21 04:58:08;;;;;;;1.20;1.10;;;19.70;57.60;;;;;;5038418;28;20044;-79
2023/07/21 05:00:34;;;;;;;1.00;0.95;;;19.70;57.60;;;;;;5005675;28;20111;-78
2023/07/21 05:03:00;;;;;;;1.02;1.00;;;19.70;57.60;;;;;;5054638;28;20063;-79
2023/07/21 05:05:27;;;;;;;0.95;0.93;;;19.70;57.60;;;;;;5039034;28;20132;-79
2023/07/21 05:07:55;;;;;;;1.10;1.00;;;19.70;57.70;;;;;;5023085;28;20494;-78
2023/07/21 05:10:23;;;;;;;0.93;0.90;;;19.70;57.70;;;;;;5039831;28;20037;-78
2023/07/21 05:12:49;;;;;;;1.58;1.13;;;19.70;57.70;;;;;;5038876;28;20037;-81
2023/07/21 05:15:27;;;;;;;0.90;0.90;;;19.70;57.80;;;;;;5055041;28;20036;-79
2023/07/21 05:18:00;;;;;;;0.88;0.88;;;19.70;57.80;;;;;;5038184;28;20072;-77
2023/07/21 05:20:50;;;;;;;1.20;1.10;;;19.70;57.80;;;;;;5054140;28;20048;-76
2023/07/21 05:23:31;;;;;;;1.35;1.00;;;19.60;57.80;;;;;;5054261;28;20037;-78
2023/07/21 05:26:09;;;;;;;0.95;0.95;;;19.70;57.80;;;;;;5009818;28;20029;-80
2023/07/21 05:28:36;;;;;;;1.17;1.08;;;19.60;57.90;;;;;;5021597;28;20381;-77
2023/07/21 05:31:03;;;;;;;1.20;1.10;;;19.60;57.90;;;;;;5055898;28;20029;-77
2023/07/21 05:34:01;;;;;;;1.08;1.05;;;19.60;57.90;;;;;;5036070;28;20033;-78
2023/07/21 05:36:29;;;;;;;1.38;1.10;;;19.60;57.80;;;;;;5005112;28;20128;-79
2023/07/21 05:38:55;;;;;;;1.85;1.10;;;19.60;57.90;;;;;;5053874;28;20473;-78
2023/07/21 05:41:22;;;;;;;1.40;1.25;;;19.60;58.00;;;;;;5037609;28;20037;-79
2023/07/21 05:43:48;;;;;;;1.10;1.00;;;19.60;58.00;;;;;;5053779;28;20036;-78
2023/07/21 05:46:13;;;;;;;0.88;0.85;;;19.60;58.00;;;;;;5020442;28;20033;-80
2023/07/21 05:48:51;;;;;;;1.85;1.00;;;19.60;58.10;;;;;;5054614;28;20461;-78
2023/07/21 05:51:17;;;;;;;0.90;0.90;;;19.60;58.00;;;;;;5037083;28;20035;-79
2023/07/21 05:53:46;;;;;;;0.98;0.98;;;19.60;58.10;;;;;;5037605;28;20029;-78
2023/07/21 05:56:14;;;;;;;1.25;1.10;;;19.60;58.00;;;;;;5037510;28;20568;-78
2023/07/21 05:58:52;;;;;;;1.00;0.95;;;19.60;58.10;;;;;;5038847;28;20550;-79
2023/07/21 06:01:18;;;;;;;1.40;1.20;;;19.60;58.10;;;;;;5036704;28;20140;-79
2023/07/21 06:03:44;;;;;;;1.25;1.10;;;19.60;58.10;;;;;;5037412;28;20033;-79
2023/07/21 06:06:10;;;;;;;1.00;1.00;;;19.60;58.10;;;;;;5004171;28;20041;-78
2023/07/21 06:08:53;;;;;;;1.20;1.10;;;19.70;58.10;;;;;;5053755;28;20032;-79
2023/07/21 06:11:37;;;;;;;1.73;0.90;;;19.60;58.10;;;;;;5041980;28;20382;-79
2023/07/21 06:14:32;;;;;;;1.17;1.08;;;19.60;58.10;;;;;;5028590;28;20037;-79
2023/07/21 06:17:09;;;;;;;1.15;1.02;;;19.60;58.00;;;;;;5008279;28;20123;-80
2023/07/21 06:19:35;;;;;;;1.10;1.00;;;19.70;58.10;;;;;;5053452;28;20175;-78
2023/07/21 06:22:01;;;;;;;1.17;1.08;;;19.70;58.10;;;;;;5036408;28;20044;-80
2023/07/21 06:24:27;;;;;;;1.52;1.20;;;19.70;58.20;;;;;;5053044;28;20025;-81
2023/07/21 06:26:53;;;;;;;1.00;1.00;;;19.70;58.20;;;;;;5053720;28;20037;-80
2023/07/21 06:29:19;;;;;;;1.00;0.90;;;19.70;58.20;;;;;;5036544;28;20366;-80
2023/07/21 06:31:44;;;;;;;1.15;1.05;;;19.70;58.10;;;;;;5036319;28;20035;-80
2023/07/21 06:34:39;;;;;;;0.93;0.93;;;19.80;58.20;;;;;;5004807;28;20042;-81
2023/07/21 06:37:28;;;;;;;1.33;1.13;;;19.80;58.10;;;;;;5015937;28;20127;-80
2023/07/21 06:40:13;;;;;;;0.95;0.95;;;19.80;58.10;;;;;;5041758;28;20044;-80
2023/07/21 06:42:48;;;;;;;0.95;0.95;;;19.80;58.10;;;;;;5037584;28;20041;-80
2023/07/21 06:45:26;;;;;;;1.02;0.85;;;19.80;58.10;;;;;;5038100;28;20049;-80
2023/07/21 06:48:16;;;;;;;1.20;1.10;;;19.80;58.10;;;;;;5026244;28;20032;-80
2023/07/21 06:50:57;;;;;;;1.33;1.10;;;19.80;58.10;;;;;;5038808;28;20117;-80
2023/07/21 06:53:23;;;;;;;0.90;0.90;;;19.90;58.10;;;;;;5053230;28;20072;-80
2023/07/21 06:55:49;;;;;;;1.20;1.05;;;19.90;58.20;;;;;;5019728;28;20057;-80
2023/07/21 06:58:15;;;;;;;1.20;1.10;;;19.90;58.10;;;;;;5052573;28;20119;-80
2023/07/21 07:00:42;;;;;;;1.20;1.10;;;19.90;58.20;;;;;;5028399;28;20061;-80
2023/07/21 07:03:07;;;;;;;0.98;0.90;;;19.90;58.20;;;;;;5040012;28;20420;-80
2023/07/21 07:05:33;;;;;;;1.10;1.00;;;20.00;58.20;;;;;;5039272;28;20495;-79
2023/07/21 07:07:59;;;;;;;1.20;1.10;;;19.90;58.70;;;;;;5074063;28;20074;-81
2023/07/21 07:10:24;;;;;;;0.90;0.90;;;20.00;58.10;;;;;;5022982;28;20032;-79
2023/07/21 07:12:50;;;;;;;0.82;0.82;;;20.00;58.10;;;;;;5038928;28;20036;-80
2023/07/21 07:15:16;;;;;;;1.20;1.10;;;20.00;58.10;;;;;;5055345;28;20123;-81
2023/07/21 07:17:42;;;;;;;0.95;0.95;;;20.10;58.10;;;;;;5055570;28;20037;-79
2023/07/21 07:20:10;;;;;;;1.17;1.08;;;20.10;58.10;;;;;;5038863;28;20039;-80
2023/07/21 07:22:36;;;;;;;1.05;0.95;;;20.10;58.10;;;;;;5055577;28;20432;-80
2023/07/21 07:25:03;;;;;;;0.90;0.90;;;20.10;58.00;;;;;;5055651;28;20448;-79
2023/07/21 07:27:28;;;;;;;0.90;0.90;;;20.20;58.10;;;;;;5038375;28;20064;-80
2023/07/21 07:29:54;;;;;;;0.88;0.80;;;20.20;58.00;;;;;;5073102;28;20059;-80
2023/07/21 07:32:20;;;;;;;1.20;1.10;;;20.20;58.00;;;;;;5038668;28;20418;-82
2023/07/21 07:34:45;;;;;;;1.08;1.00;;;20.30;58.00;;;;;;5071742;28;20033;-80
2023/07/21 07:37:11;;;;;;;1.15;1.00;;;20.30;58.00;;;;;;5038791;28;20111;-80
2023/07/21 07:39:37;;;;;;;1.20;1.10;;;20.30;57.90;;;;;;5055477;28;20036;-81
2023/07/21 07:42:03;;;;;;;1.20;1.10;;;20.40;58.00;;;;;;5056686;28;20431;-80
2023/07/21 07:44:28;;;;;;;1.02;0.93;;;20.40;57.90;;;;;;5042223;28;20024;-78
2023/07/21 07:46:58;;;;;;;1.48;1.08;;;20.50;57.90;;;;;;5059294;28;20033;-80
2023/07/21 07:49:24;;;;;;;1.45;1.13;;;20.50;57.90;;;;;;5059251;28;20040;-80
2023/07/21 07:51:50;;;;;;;1.05;1.05;;;20.60;57.90;;;;;;5076909;28;20036;-80
2023/07/21 07:54:16;;;;;;;1.17;0.90;;;20.60;57.80;;;;;;5042654;28;20483;-80
2023/07/21 07:56:41;;;;;;;1.00;0.90;;;20.70;57.80;;;;;;5076691;28;20032;-80
2023/07/21 07:59:07;;;;;;;1.23;0.95;;;20.70;57.70;;;;;;5075649;28;20032;-80
2023/07/21 08:01:33;;;;;;;1.25;1.00;;;20.80;57.70;;;;;;5058438;28;20084;-79
2023/07/21 08:03:59;;;;;;;1.00;0.90;;;20.80;57.60;;;;;;5043215;28;20422;-80
2023/07/21 08:06:25;;;;;;;0.85;0.85;;;20.90;57.60;;;;;;5058902;28;20042;-79
2023/07/21 08:08:51;;;;;;;0.95;0.88;;;21.00;57.50;;;;;;5042448;28;20094;-80
2023/07/21 08:11:17;;;;;;;1.10;1.00;;;21.00;57.40;;;;;;5058828;28;20472;-80
2023/07/21 08:13:44;;;;;;;0.88;0.88;;;21.10;57.30;;;;;;5042132;28;20036;-80
2023/07/21 08:16:12;;;;;;;0.98;0.98;;;21.10;57.20;;;;;;5041965;28;20077;-80
2023/07/21 08:18:38;;;;;;;0.90;0.90;;;21.20;57.20;;;;;;5076876;28;20120;-79
2023/07/21 08:21:21;;;;;;;1.10;1.00;;;21.20;57.10;;;;;;5042556;28;20107;-79
2023/07/21 08:23:49;;;;;;;0.80;0.80;;;21.30;57.10;;;;;;5058849;28;20040;-79
2023/07/21 08:26:15;;;;;;;0.88;0.88;;;21.40;57.00;;;;;;5058902;28;20043;-80
2023/07/21 08:28:41;;;;;;;0.95;0.93;;;21.40;56.90;;;;;;5058255;28;20123;-79
2023/07/21 08:31:06;;;;;;;0.90;0.90;;;21.50;56.90;;;;;;5058615;28;20029;-79
2023/07/21 08:33:32;;;;;;;1.00;1.00;;;21.50;56.80;;;;;;5042812;28;20081;-79
2023/07/21 08:35:58;;;;;;;0.80;0.80;;;21.60;56.80;;;;;;5058576;28;20051;-78
2023/07/21 08:38:24;;;;;;;0.90;0.90;;;21.60;56.70;;;;;;5042530;28;20158;-80
2023/07/21 08:41:01;;;;;;;1.00;0.90;;;21.70;56.70;;;;;;5059377;28;20545;-79
2023/07/21 08:43:28;;;;;;;1.00;1.00;;;21.80;56.70;;;;;;5058289;28;20032;-78
2023/07/21 08:45:57;;;;;;;1.00;0.90;;;21.80;56.60;;;;;;5042343;28;20119;-78
2023/07/21 08:48:23;;;;;;;1.10;1.00;;;21.90;56.60;;;;;;5058347;28;20035;-78
2023/07/21 08:50:51;;;;;;;0.80;0.80;;;21.90;56.50;;;;;;5058410;28;20037;-78
2023/07/21 08:53:17;;;;;;;1.10;1.10;;;22.00;56.50;;;;;;5058208;28;20362;-78
2023/07/21 08:55:43;;;;;;;0.90;0.90;;;22.00;56.40;;;;;;5057808;28;20094;-80
2023/07/21 08:58:09;;;;;;;0.90;0.90;;;22.10;56.40;;;;;;5074697;28;20033;-79
2023/07/21 09:00:36;;;;;;;1.20;0.80;;;22.20;56.40;;;;;;5041343;28;20097;-78
2023/07/21 09:03:03;;;;;;;1.08;0.98;;;22.20;56.30;;;;;;5057944;28;20053;-79
2023/07/21 09:05:29;;;;;;;1.02;0.95;;;22.30;56.20;;;;;;5057884;28;20036;-78
2023/07/21 09:07:55;;;;;;;0.82;0.80;;;22.40;56.20;;;;;;5025090;28;20037;-78
2023/07/21 09:10:32;;;;;;;0.88;0.88;;;22.50;56.10;;;;;;5075570;28;20028;-79
2023/07/21 09:12:59;;;;;;;0.90;0.90;;;22.50;56.10;;;;;;5058013;28;20031;-79
2023/07/21 09:15:25;;;;;;;0.80;0.80;;;22.60;56.00;;;;;;5057952;28;20365;-79
2023/07/21 09:17:51;;;;;;;0.88;0.88;;;22.70;56.00;;;;;;5057403;28;20052;-79
2023/07/21 09:20:18;;;;;;;1.08;0.90;;;22.70;55.90;;;;;;5041363;28;20084;-80
2023/07/21 09:22:52;;;;;;;1.05;0.90;;;22.80;55.90;;;;;;5040914;28;20037;-79
2023/07/21 09:25:20;;;;;;;1.13;0.90;;;22.90;55.90;;;;;;5058058;28;20119;-79
2023/07/21 09:27:57;;;;;;;0.88;0.85;;;23.00;55.80;;;;;;5057916;28;20025;-79
2023/07/21 09:30:23;;;;;;;0.90;0.80;;;23.10;55.80;;;;;;5041782;28;20040;-80
2023/07/21 09:32:55;;;;;;;1.00;1.00;;;23.20;55.70;;;;;;5075208;28;20048;-81
2023/07/21 09:35:21;;;;;;;0.80;0.80;;;23.20;55.60;;;;;;5076010;28;20078;-79
2023/07/21 09:37:51;;;;;;;0.80;0.80;;;23.30;55.60;;;;;;5075747;28;20444;-81
2023/07/21 09:40:25;;;;;;;0.90;0.80;;;23.40;55.50;;;;;;5024814;28;20059;-79
2023/07/21 09:42:51;;;;;;;1.38;0.80;;;23.50;55.40;;;;;;5076022;28;20031;-80
2023/07/21 09:45:17;;;;;;;0.80;0.80;;;23.50;55.20;;;;;;5040811;28;20040;-82
2023/07/21 09:47:43;;;;;;;1.20;0.90;;;23.60;55.20;;;;;;5040768;28;20372;-81
2023/07/21 09:50:09;;;;;;;0.85;0.85;;;23.60;55.10;;;;;;5057373;28;20162;-76
2023/07/21 09:52:39;;;;;;;0.80;0.80;;;23.80;55.10;;;;;;5074761;28;20036;-77
2023/07/21 09:55:11;;;;;;;1.40;0.90;;;23.80;55.00;;;;;;5073567;28;20126;-77
2023/07/21 09:57:41;;;;;;;0.70;0.70;;;23.90;55.00;;;;;;5056736;28;20036;-77
2023/07/21 10:00:13;;;;;;;1.00;1.00;;;23.90;54.80;;;;;;5041269;28;20032;-77
2023/07/21 10:02:50;;;;;;;1.38;0.90;;;24.00;54.90;;;;;;5057348;28;20345;-78
2023/07/21 10:05:16;;;;;;;0.70;0.70;;;24.10;54.90;;;;;;5039555;28;20043;-78
2023/07/21 10:07:47;;;;;;;0.70;0.70;;;24.10;54.70;;;;;;5056669;28;20020;-78
2023/07/21 10:10:14;;;;;;;1.08;0.98;;;24.30;54.80;;;;;;5041009;28;20067;-80
2023/07/21 10:12:42;;;;;;;1.00;0.90;;;24.30;54.60;;;;;;5074935;28;20485;-82
2023/07/21 10:15:36;;;;;;;0.80;0.80;;;24.40;54.60;;;;;;5074326;28;20031;-79
2023/07/21 10:18:10;;;;;;;0.90;0.90;;;24.50;54.50;;;;;;5056586;28;20044;-80
2023/07/21 10:20:40;;;;;;;0.90;0.90;;;24.60;54.50;;;;;;5057514;28;20033;-81
2023/07/21 10:23:06;;;;;;;0.80;0.80;;;24.60;54.30;;;;;;5056645;28;20032;-79
2023/07/21 10:25:56;;;;;;;0.90;0.90;;;24.70;54.30;;;;;;5040117;28;20032;-79
2023/07/21 10:28:35;;;;;;;0.90;0.90;;;24.80;54.40;;;;;;5056348;28;20031;-79
2023/07/21 10:31:21;;;;;;;0.80;0.70;;;24.80;54.20;;;;;;5074480;28;20036;-80
2023/07/21 10:34:11;;;;;;;0.73;0.73;;;24.90;54.20;;;;;;5056887;28;20040;-80
2023/07/21 10:36:42;;;;;;;0.82;0.82;;;25.00;54.20;;;;;;5056840;28;20036;-83
2023/07/21 10:39:11;;;;;;;0.80;0.80;;;25.10;54.00;;;;;;5056517;28;20115;-82
2023/07/21 10:41:38;;;;;;;0.95;0.93;;;25.10;53.90;;;;;;5056822;28;20040;-84
2023/07/21 10:44:09;;;;;;;0.95;0.85;;;25.20;53.90;;;;;;5040528;28;20024;-82
2023/07/21 10:46:43;;;;;;;0.93;0.93;;;25.30;53.90;;;;;;5039753;28;20043;-83
2023/07/21 10:49:10;;;;;;;1.17;0.90;;;25.30;53.80;;;;;;5056931;28;20032;-82
2023/07/21 10:51:39;;;;;;;1.00;0.93;;;25.40;53.70;;;;;;5039456;28;20036;-82
2023/07/21 10:54:05;;;;;;;0.98;0.88;;;25.40;53.60;;;;;;5039987;28;20086;-82
2023/07/21 10:56:38;;;;;;;1.00;1.00;;;25.50;53.60;;;;;;5039347;28;20037;-82
2023/07/21 10:59:04;;;;;;;0.82;0.82;;;25.60;53.60;;;;;;5056158;28;20041;-82
2023/07/21 11:01:31;;;;;;;0.88;0.88;;;25.60;53.50;;;;;;5039319;28;20036;-83
2023/07/21 11:03:58;;;;;;;1.25;1.08;;;25.70;53.50;;;;;;5055953;28;20020;-84
2023/07/21 11:06:24;;;;;;;1.00;1.00;;;25.70;53.50;;;;;;5056092;28;20112;-83
2023/07/21 11:08:50;;;;;;;1.45;1.20;;;25.70;53.30;;;;;;5055516;28;20097;-83
2023/07/21 11:11:16;;;;;;;1.02;0.85;;;25.80;53.30;;;;;;5073676;28;20115;-83
2023/07/21 11:13:42;;;;;;;0.98;0.90;;;25.80;53.20;;;;;;5073446;28;20484;-83
2023/07/21 11:16:09;;;;;;;0.80;0.80;;;25.80;53.20;;;;;;5038362;28;20033;-82
2023/07/21 11:18:39;;;;;;;0.88;0.80;;;25.90;54.00;;;;;;5055378;28;20056;-83
2023/07/21 11:21:05;;;;;;;1.15;1.05;;;25.90;53.30;;;;;;5073544;28;20025;-83
2023/07/21 11:23:31;;;;;;;1.17;0.85;;;26.00;53.40;;;;;;5039036;28;20106;-82
2023/07/21 11:26:07;;;;;;;0.75;0.75;;;26.00;53.40;;;;;;5054941;28;20037;-82
2023/07/21 11:28:34;;;;;;;0.70;0.70;;;26.00;53.40;;;;;;5039650;28;20123;-83
2023/07/21 11:31:01;;;;;;;0.80;0.80;;;26.00;53.50;;;;;;5073304;28;20041;-83
2023/07/21 11:33:47;;;;;;;1.02;0.70;;;26.10;53.50;;;;;;5056097;28;20031;-83
2023/07/21 11:36:18;;;;;;;0.80;0.80;;;26.10;53.60;;;;;;5055454;28;20028;-83
2023/07/21 11:38:59;;;;;;;1.02;0.93;;;26.10;53.50;;;;;;5073147;28;20025;-81
2023/07/21 11:41:55;;;;;;;0.88;0.88;;;26.20;53.70;;;;;;5072092;28;20052;-83
2023/07/21 11:44:35;;;;;;;1.13;0.85;;;26.10;53.70;;;;;;5035054;28;20056;-82
2023/07/21 11:47:08;;;;;;;0.65;0.65;;;26.20;53.70;;;;;;5055119;28;20032;-83
2023/07/21 11:49:42;;;;;;;0.90;0.90;;;26.20;53.70;;;;;;5073353;28;20024;-82
2023/07/21 11:52:09;;;;;;;0.82;0.80;;;26.20;53.80;;;;;;5055219;28;20037;-83
2023/07/21 11:54:43;;;;;;;0.77;0.77;;;26.20;53.80;;;;;;5039069;28;20100;-82
2023/07/21 11:57:11;;;;;;;0.77;0.77;;;26.20;53.80;;;;;;5055304;28;20064;-83
2023/07/21 11:59:37;;;;;;;1.00;0.70;;;26.30;54.50;;;;;;5073316;28;20056;-83
2023/07/21 12:02:06;;;;;;;0.80;0.80;;;26.30;53.90;;;;;;5073880;28;20049;-82
2023/07/21 12:04:33;;;;;;;1.00;0.80;;;26.30;53.90;;;;;;5055103;28;20032;-82
2023/07/21 12:07:00;;;;;;;0.63;0.63;;;26.30;53.90;;;;;;5038511;28;20028;-83
2023/07/21 12:09:26;;;;;;;0.98;0.82;;;26.40;53.90;;;;;;5055032;28;20459;-82
2023/07/21 12:11:54;;;;;;;0.82;0.75;;;26.40;53.90;;;;;;5038581;28;20385;-82
2023/07/21 12:14:20;;;;;;;0.60;0.60;;;26.40;53.80;;;;;;5054985;28;20024;-83
2023/07/21 12:16:46;;;;;;;0.77;0.77;;;26.40;53.70;;;;;;5039232;28;20032;-82
2023/07/21 12:19:13;;;;;;;0.93;0.90;;;26.50;53.70;;;;;;5055258;28;20033;-82
2023/07/21 12:21:40;;;;;;;0.65;0.65;;;26.50;53.70;;;;;;5054847;28;20063;-84
2023/07/21 12:24:06;;;;;;;0.70;0.70;;;26.50;53.60;;;;;;5038561;28;20064;-81
2023/07/21 12:26:32;;;;;;;1.10;1.00;;;26.50;53.60;;;;;;5054620;28;20098;-82
2023/07/21 12:28:59;;;;;;;0.80;0.80;;;26.50;53.50;;;;;;5058083;28;20032;-83
2023/07/21 12:31:25;;;;;;;0.98;0.93;;;26.60;53.60;;;;;;5059143;28;20031;-82
2023/07/21 12:33:51;;;;;;;0.90;0.80;;;26.50;53.50;;;;;;5076380;28;20028;-82
2023/07/21 12:36:20;;;;;;;1.33;1.05;;;26.60;53.60;;;;;;5076552;28;20492;-82
2023/07/21 12:38:46;;;;;;;1.10;0.90;;;26.60;53.50;;;;;;5041826;28;20051;-81
2023/07/21 12:41:13;;;;;;;0.88;0.88;;;26.60;53.50;;;;;;5058834;28;20109;-82
2023/07/21 12:43:39;;;;;;;0.80;0.80;;;26.60;53.40;;;;;;5075992;28;20039;-84
2023/07/21 12:46:05;;;;;;;0.95;0.82;;;26.60;53.40;;;;;;5041584;28;20033;-82
2023/07/21 12:48:32;;;;;;;0.90;0.88;;;26.60;53.40;;;;;;5058077;28;20036;-82
2023/07/21 12:50:59;;;;;;;0.82;0.82;;;26.60;53.50;;;;;;5041528;28;20029;-82
2023/07/21 12:53:25;;;;;;;1.25;1.00;;;26.60;53.30;;;;;;5058345;28;20474;-82
2023/07/21 12:55:51;;;;;;;0.88;0.63;;;26.60;53.10;;;;;;5076017;28;20051;-81
2023/07/21 12:58:21;;;;;;;1.15;0.93;;;26.60;53.10;;;;;;5008743;28;20040;-81